This is the latest recevied weather packets stored in our database for station/object N8BAP. If no packets are shown the sender has not sent any weather packets the latest 10 day(s).
| Time | Temp. | Humidity | Pressure | Rain* | Wind** | Luminosity | Snow |
|---|---|---|---|---|---|---|---|
| 1777399877 | 21.67° C | 73% | 1019.2 hPa | 0 mm | - | 223 W/m² | - |
| 1777399575 | 21.67° C | 72% | 1019.2 hPa | 0 mm | - | 912 W/m² | - |
| 1777399271 | 21.67° C | 73% | 1019.4 hPa | 0 mm | - | 282 W/m² | - |
| 1777398970 | 21.11° C | 75% | 1019.5 hPa | 0 mm | - | 899 W/m² | - |
| 1777398666 | 20.56° C | 76% | 1019.3 hPa | 0 mm | - | 856 W/m² | - |
| 1777398363 | 21.11° C | 75% | 1019.5 hPa | 0 mm | - | 157 W/m² | - |
| 1777398060 | 21.11° C | 75% | 1019.5 hPa | 0 mm | - | 685 W/m² | - |
| 1777397756 | 21.11° C | 77% | 1019.3 hPa | 0 mm | - | 241 W/m² | - |
| 1777397452 | 21.67° C | 76% | 1019.6 hPa | 0 mm | - | 250 W/m² | - |
| 1777397148 | 21.11° C | 78% | 1019.4 hPa | 0 mm | - | 745 W/m² | - |
| 1777396845 | 21.11° C | 77% | 1019.4 hPa | 0 mm | - | 813 W/m² | - |
| 1777396542 | 21.11° C | 78% | 1019.8 hPa | 0 mm | - | 472 W/m² | - |
| 1777396239 | 21.11° C | 79% | 1019.6 hPa | 0 mm | - | 750 W/m² | - |
| 1777395934 | 20.56° C | 80% | 1019.7 hPa | 0 mm | - | 698 W/m² | - |
| 1777395630 | 20° C | 80% | 1019.7 hPa | 0 mm | - | 935 W/m² | - |
| 1777395327 | 19.44° C | 81% | 1019.9 hPa | 0 mm | - | 778 W/m² | - |
| 1777395024 | 20° C | 79% | 1019.6 hPa | 0 mm | - | 325 W/m² | - |
| 1777394721 | 20° C | 81% | 1019.6 hPa | 0 mm | - | 365 W/m² | - |
| 1777394417 | 19.44° C | 80% | 1019.6 hPa | 0 mm | - | 402 W/m² | - |
| 1777394113 | 20° C | 80% | 1019.5 hPa | 0 mm | - | 372 W/m² | - |
| 1777393810 | 20° C | 81% | 1019.6 hPa | 0 mm | - | 442 W/m² | - |
| 1777393508 | 19.44° C | 85% | 1019.8 hPa | 0 mm | - | 685 W/m² | - |
| 1777393204 | 19.44° C | 82% | 1019.5 hPa | 0 mm | - | 316 W/m² | - |
| 1777392901 | 19.44° C | 83% | 1019.8 hPa | 0 mm | - | 410 W/m² | - |
| 1777392596 | 19.44° C | 82% | 1019.6 hPa | 0 mm | - | 347 W/m² | - |
* Rain latest hour (hover to see other rain measurements)
** Current wind speed in m/s (hover to see current wind gust speed)